Aviation Digital Data Service (ADDS)

Output produced by METARs form (0729 UTC 23 August 2014)
found at http://www.aviationweather.gov/adds/metars/
 
KBMI 230520Z 2306/2406 14005KT P6SM SCT025 BKN100 
     FM230800 14004KT 4SM BR VCSH SCT030 BKN100 
     FM231400 13005KT P6SM SCT020 BKN100 
     FM232000 15006KT P6SM SCT035 BKN250 
     FM240200 12005KT P6SM BKN250